createdAt,value
2022-10-25T00:00:08.669Z,99.90
2022-10-25T00:03:50.554Z,99.90
2022-10-25T00:07:32.375Z,99.90
2022-10-25T00:11:23.689Z,99.90
2022-10-25T00:15:06.065Z,99.90
2022-10-25T00:18:48.111Z,99.90
2022-10-25T00:22:29.926Z,99.90
2022-10-25T00:26:12.914Z,99.90
2022-10-25T00:29:54.866Z,99.90
2022-10-25T00:33:37.853Z,99.90
2022-10-25T00:37:19.758Z,99.90
2022-10-25T00:41:02.395Z,99.90
2022-10-25T00:44:57.188Z,99.90
2022-10-25T00:48:39.219Z,99.90
2022-10-25T00:52:21.876Z,99.90
2022-10-25T00:56:17.048Z,99.90
2022-10-25T00:59:59.776Z,99.90
2022-10-25T01:03:43.947Z,99.90
2022-10-25T01:07:25.770Z,99.90
2022-10-25T01:11:07.661Z,99.90
2022-10-25T01:14:51.567Z,99.90
2022-10-25T01:18:43.478Z,99.90
2022-10-25T01:22:37.166Z,99.90
2022-10-25T01:26:40.658Z,99.90
2022-10-25T01:30:25.214Z,99.90
2022-10-25T01:34:33.759Z,99.90
2022-10-25T01:38:47.284Z,99.90
2022-10-25T01:42:38.419Z,99.90
2022-10-25T01:46:36.629Z,99.90
2022-10-25T01:50:26.131Z,99.90
2022-10-25T01:54:25.779Z,99.90
2022-10-25T01:58:22.687Z,99.90
2022-10-25T02:02:16.401Z,99.90
2022-10-25T02:06:28.047Z,99.90
2022-10-25T02:10:24.794Z,99.90
2022-10-25T02:14:37.403Z,99.90
2022-10-25T02:18:23.805Z,99.90
2022-10-25T02:22:09.161Z,99.90
2022-10-25T02:25:51.739Z,99.90
2022-10-25T02:29:35.330Z,99.90
2022-10-25T02:33:17.451Z,99.90
2022-10-25T02:37:00.753Z,99.90
2022-10-25T02:40:42.600Z,99.90
2022-10-25T02:44:24.478Z,99.90
2022-10-25T02:48:06.440Z,99.90
2022-10-25T02:51:48.287Z,99.90
2022-10-25T02:55:30.191Z,99.90
2022-10-25T02:59:15.178Z,99.90
2022-10-25T03:02:57.168Z,99.90
2022-10-25T03:06:39.115Z,99.90
2022-10-25T03:10:20.949Z,99.90
2022-10-25T03:14:02.808Z,99.90
2022-10-25T03:17:44.767Z,99.90
2022-10-25T03:21:27.098Z,99.90
2022-10-25T03:28:55.814Z,99.90
2022-10-25T03:32:37.747Z,99.90
2022-10-25T03:36:19.851Z,99.90
2022-10-25T03:40:01.683Z,99.90
2022-10-25T03:43:43.503Z,99.90
2022-10-25T03:47:25.311Z,99.90
2022-10-25T03:51:07.219Z,99.90
2022-10-25T03:54:49.136Z,99.90
2022-10-25T03:58:31.008Z,99.90
2022-10-25T04:02:14.453Z,99.90
2022-10-25T04:05:56.319Z,99.90
2022-10-25T04:09:38.143Z,99.90
2022-10-25T04:13:19.987Z,99.90
2022-10-25T04:17:01.855Z,99.90
2022-10-25T04:20:43.698Z,99.90
2022-10-25T04:24:25.552Z,99.90
2022-10-25T04:28:07.428Z,99.90
2022-10-25T04:31:49.324Z,99.90
2022-10-25T04:35:31.125Z,99.90
2022-10-25T04:39:12.914Z,99.90
2022-10-25T04:42:54.714Z,99.90
2022-10-25T04:46:36.513Z,99.90
2022-10-25T04:50:18.368Z,99.90
2022-10-25T04:54:00.226Z,99.90
2022-10-25T04:57:42.033Z,99.90
2022-10-25T05:01:23.938Z,99.90
2022-10-25T05:05:06.342Z,99.90
2022-10-25T05:08:49.915Z,99.90
2022-10-25T05:12:31.742Z,99.90
2022-10-25T05:16:17.839Z,99.90
2022-10-25T05:19:59.633Z,99.90
2022-10-25T05:23:41.787Z,99.90
2022-10-25T05:27:23.615Z,99.90
2022-10-25T05:31:30.417Z,99.90
2022-10-25T05:35:12.133Z,99.90
2022-10-25T05:38:53.952Z,99.90
2022-10-25T05:42:35.779Z,99.90
2022-10-25T05:46:21.041Z,99.90
2022-10-25T05:50:02.964Z,99.90
2022-10-25T05:53:48.996Z,99.90
2022-10-25T05:57:31.067Z,99.90
2022-10-25T06:01:15.421Z,99.90
2022-10-25T06:04:57.286Z,99.90
2022-10-25T06:08:39.843Z,99.90
2022-10-25T06:12:21.623Z,99.90
2022-10-25T06:16:08.567Z,99.90
2022-10-25T06:19:50.398Z,99.90
2022-10-25T06:23:32.270Z,99.90
2022-10-25T06:27:14.080Z,99.90
2022-10-25T06:31:07.931Z,99.90
2022-10-25T06:34:49.749Z,99.90
2022-10-25T06:38:31.883Z,99.90
2022-10-25T06:42:13.708Z,99.90
2022-10-25T06:45:55.623Z,99.90
2022-10-25T06:49:37.503Z,99.90
2022-10-25T06:53:19.666Z,99.90
2022-10-25T06:57:01.553Z,99.90
2022-10-25T07:00:45.985Z,99.90
2022-10-25T07:04:32.477Z,99.90
2022-10-25T07:08:14.252Z,99.90
2022-10-25T07:11:56.085Z,99.90
2022-10-25T07:15:41.307Z,99.90
2022-10-25T07:19:24.710Z,99.90
2022-10-25T07:23:08.737Z,99.90
2022-10-25T07:26:50.784Z,99.90
2022-10-25T07:30:32.572Z,99.90
2022-10-25T07:34:15.453Z,99.90
2022-10-25T07:37:57.282Z,99.90
2022-10-25T07:41:39.150Z,99.90
2022-10-25T07:45:23.638Z,99.90
2022-10-25T07:49:08.501Z,99.90
2022-10-25T07:52:50.412Z,99.90
2022-10-25T07:56:32.217Z,99.90
2022-10-25T08:00:14.187Z,99.90
2022-10-25T08:03:57.029Z,99.90
2022-10-25T08:07:38.847Z,99.90
2022-10-25T08:11:21.003Z,99.90
2022-10-25T08:15:02.876Z,99.90
2022-10-25T08:18:44.771Z,99.90
2022-10-25T08:22:26.579Z,99.90
2022-10-25T08:26:08.540Z,99.90
2022-10-25T08:29:50.382Z,99.90
2022-10-25T08:33:32.820Z,99.90
2022-10-25T08:37:14.694Z,99.90
2022-10-25T08:40:59.323Z,99.90
2022-10-25T08:45:05.887Z,99.90
2022-10-25T08:48:54.093Z,99.90
2022-10-25T08:52:44.004Z,99.90
2022-10-25T08:56:27.134Z,99.90
2022-10-25T09:00:17.429Z,99.90
2022-10-25T09:04:00.348Z,99.90
2022-10-25T09:08:17.019Z,99.90
2022-10-25T09:12:26.039Z,99.90
2022-10-25T09:16:13.166Z,99.90
2022-10-25T09:20:24.704Z,99.90
2022-10-25T09:24:18.980Z,99.90
2022-10-25T09:28:08.361Z,99.90
2022-10-25T09:31:56.023Z,99.90
2022-10-25T09:35:47.235Z,99.90
2022-10-25T09:39:41.763Z,99.90
2022-10-25T09:43:38.480Z,99.90
2022-10-25T09:47:33.443Z,99.90
2022-10-25T09:51:38.127Z,99.90
2022-10-25T09:55:47.495Z,99.90
2022-10-25T09:59:29.590Z,99.90
2022-10-25T10:03:12.997Z,99.90
2022-10-25T10:06:59.128Z,99.90
2022-10-25T10:10:41.774Z,99.90
2022-10-25T10:14:35.411Z,99.90
2022-10-25T10:18:27.894Z,99.90
2022-10-25T10:22:14.109Z,99.90
2022-10-25T10:25:56.847Z,99.90
2022-10-25T10:29:53.119Z,99.90
2022-10-25T10:33:37.506Z,99.90
2022-10-25T10:37:24.563Z,99.90
2022-10-25T10:41:27.846Z,98.20
2022-10-25T10:45:17.698Z,97.30
2022-10-25T10:49:01.971Z,95.00
2022-10-25T10:52:46.221Z,89.00
2022-10-25T10:56:30.734Z,87.10
2022-10-25T11:00:33.824Z,84.80
2022-10-25T11:04:15.685Z,91.00
2022-10-25T11:08:19.208Z,90.40
2022-10-25T11:12:11.467Z,91.80
2022-10-25T11:15:58.830Z,80.70
2022-10-25T11:19:49.836Z,73.60
2022-10-25T11:23:51.060Z,76.40
2022-10-25T11:28:03.724Z,82.00
2022-10-25T11:31:55.563Z,82.50
2022-10-25T11:35:56.343Z,84.10
2022-10-25T11:40:02.514Z,83.20
2022-10-25T11:43:50.376Z,84.30
2022-10-25T11:47:44.791Z,91.80
2022-10-25T11:51:33.405Z,82.80
2022-10-25T11:55:29.920Z,82.40
2022-10-25T11:59:41.248Z,82.70
2022-10-25T12:03:53.923Z,87.50
2022-10-25T12:07:37.243Z,86.30
2022-10-25T12:11:25.217Z,81.30
2022-10-25T12:15:15.435Z,79.10
2022-10-25T12:19:02.355Z,78.80
2022-10-25T12:22:47.549Z,79.20
2022-10-25T12:26:33.450Z,80.30
2022-10-25T12:30:17.738Z,80.00
2022-10-25T12:34:18.339Z,77.60
2022-10-25T12:38:20.542Z,75.70
2022-10-25T12:42:07.782Z,75.10
2022-10-25T12:46:05.160Z,76.10
2022-10-25T12:50:24.141Z,75.20
2022-10-25T12:54:36.968Z,80.30
2022-10-25T12:58:43.502Z,79.20
2022-10-25T13:02:39.075Z,76.20
2022-10-25T13:06:29.264Z,75.60
2022-10-25T13:10:21.247Z,79.50
2022-10-25T13:14:03.987Z,79.50
2022-10-25T13:17:58.759Z,78.20
2022-10-25T13:21:55.655Z,80.00
2022-10-25T13:25:49.303Z,82.80
2022-10-25T13:30:04.794Z,81.90
2022-10-25T13:34:12.685Z,79.70
2022-10-25T13:38:15.451Z,83.60
2022-10-25T13:42:09.463Z,77.80
2022-10-25T13:45:55.447Z,79.90
2022-10-25T13:49:43.540Z,80.30
2022-10-25T13:53:39.428Z,80.90
2022-10-25T13:57:47.403Z,82.60
2022-10-25T14:01:31.278Z,83.60
2022-10-25T14:05:13.363Z,77.80
2022-10-25T14:09:17.095Z,78.30
2022-10-25T14:13:07.307Z,82.50
2022-10-25T14:17:07.678Z,76.50
2022-10-25T14:21:05.528Z,77.90
2022-10-25T14:24:52.339Z,73.30
2022-10-25T14:28:36.053Z,73.50
2022-10-25T14:32:21.780Z,72.80
2022-10-25T14:36:06.602Z,75.10
2022-10-25T14:39:52.656Z,76.40
2022-10-25T14:43:37.214Z,78.90
2022-10-25T14:47:31.120Z,76.50
2022-10-25T14:51:22.075Z,77.60
2022-10-25T14:55:06.699Z,78.20
2022-10-25T14:58:49.022Z,78.50
2022-10-25T15:02:35.334Z,79.10
2022-10-25T15:06:18.443Z,82.40
2022-10-25T15:10:02.724Z,80.90
2022-10-25T15:13:48.040Z,81.30
2022-10-25T15:17:30.914Z,82.40
2022-10-25T15:21:19.480Z,83.00
2022-10-25T15:25:01.324Z,83.80
2022-10-25T15:28:58.381Z,85.90
2022-10-25T15:32:40.205Z,87.10
2022-10-25T15:36:24.706Z,86.40
2022-10-25T15:40:15.795Z,86.60
2022-10-25T15:43:57.652Z,87.30
2022-10-25T15:47:41.882Z,87.30
2022-10-25T15:51:25.243Z,87.90
2022-10-25T15:55:32.969Z,89.00
2022-10-25T16:02:59.203Z,90.20
2022-10-25T16:06:41.544Z,90.10
2022-10-25T16:10:25.233Z,90.40
2022-10-25T16:14:18.022Z,90.70
2022-10-25T16:17:59.814Z,90.90
2022-10-25T16:21:42.079Z,91.20
2022-10-25T16:25:30.427Z,91.70
2022-10-25T16:29:17.972Z,91.90
2022-10-25T16:32:59.810Z,92.30
2022-10-25T16:36:41.636Z,92.60
2022-10-25T16:40:23.656Z,92.90
2022-10-25T16:44:05.707Z,93.20
2022-10-25T16:47:47.516Z,93.50
2022-10-25T16:51:29.363Z,93.90
2022-10-25T16:55:11.264Z,93.90
2022-10-25T16:58:53.090Z,94.20
2022-10-25T17:02:34.934Z,94.50
2022-10-25T17:06:39.615Z,94.70
2022-10-25T17:10:20.977Z,95.00
2022-10-25T17:14:02.841Z,95.20
2022-10-25T17:17:46.536Z,95.50
2022-10-25T17:21:28.784Z,95.70
2022-10-25T17:25:11.416Z,96.10
2022-10-25T17:28:53.238Z,96.30
2022-10-25T17:32:35.110Z,96.50
2022-10-25T17:36:18.859Z,96.70
2022-10-25T17:40:01.070Z,96.80
2022-10-25T17:43:42.950Z,97.00
2022-10-25T17:47:24.764Z,97.10
2022-10-25T17:51:09.490Z,97.20
2022-10-25T17:54:51.319Z,97.40
2022-10-25T17:58:33.111Z,97.50
2022-10-25T18:02:15.025Z,97.70
2022-10-25T18:06:04.002Z,97.80
2022-10-25T18:09:45.787Z,98.20
2022-10-25T18:13:29.395Z,98.40
2022-10-25T18:17:11.353Z,98.10
2022-10-25T18:20:53.194Z,98.30
2022-10-25T18:24:35.664Z,98.40
2022-10-25T18:28:17.691Z,98.40
2022-10-25T18:31:59.494Z,98.80
2022-10-25T18:35:41.897Z,98.70
2022-10-25T18:39:23.798Z,99.00
2022-10-25T18:43:06.347Z,98.70
2022-10-25T18:46:48.303Z,98.90
2022-10-25T18:50:30.106Z,98.90
2022-10-25T18:54:12.536Z,99.00
2022-10-25T18:57:55.402Z,99.20
2022-10-25T19:01:38.026Z,99.10
2022-10-25T19:05:21.091Z,99.10
2022-10-25T19:09:03.916Z,99.20
2022-10-25T19:12:45.880Z,99.40
2022-10-25T19:16:27.721Z,99.10
2022-10-25T19:20:09.922Z,99.30
2022-10-25T19:23:54.141Z,99.30
2022-10-25T19:27:36.004Z,99.30
2022-10-25T19:31:18.113Z,99.40
2022-10-25T19:35:00.119Z,99.30
2022-10-25T19:38:42.297Z,99.40
2022-10-25T19:42:24.227Z,99.60
2022-10-25T19:46:07.695Z,99.50
2022-10-25T19:49:49.707Z,99.40
2022-10-25T19:53:31.612Z,99.40
2022-10-25T19:57:13.581Z,99.30
2022-10-25T20:01:14.705Z,99.50
2022-10-25T20:04:56.581Z,99.60
2022-10-25T20:08:39.992Z,99.20
2022-10-25T20:12:21.825Z,99.30
2022-10-25T20:16:04.217Z,99.30
2022-10-25T20:19:46.034Z,99.30
2022-10-25T20:23:28.848Z,99.30
2022-10-25T20:27:10.751Z,99.40
2022-10-25T20:30:52.629Z,99.50
2022-10-25T20:34:35.314Z,99.40
2022-10-25T20:38:17.237Z,99.50
2022-10-25T20:41:59.136Z,99.60
2022-10-25T20:45:44.036Z,99.60
2022-10-25T20:49:25.924Z,99.80
2022-10-25T20:53:11.142Z,99.90
2022-10-25T20:56:53.047Z,99.90
2022-10-25T21:00:34.914Z,99.90
2022-10-25T21:04:25.854Z,99.90
2022-10-25T21:08:17.891Z,99.90
2022-10-25T21:11:59.720Z,99.90
2022-10-25T21:15:46.480Z,99.90
2022-10-25T21:19:28.284Z,99.90
2022-10-25T21:23:10.271Z,99.90
2022-10-25T21:26:54.179Z,99.90
2022-10-25T21:30:36.002Z,99.90
2022-10-25T21:38:04.522Z,99.90
2022-10-25T21:41:46.321Z,99.90
2022-10-25T21:45:28.099Z,99.90
2022-10-25T21:49:09.982Z,99.90
2022-10-25T21:52:53.395Z,99.90
2022-10-25T21:56:35.200Z,99.90
2022-10-25T22:00:17.162Z,99.90
2022-10-25T22:03:59.336Z,99.90
2022-10-25T22:07:41.195Z,99.90
2022-10-25T22:11:26.027Z,99.90
2022-10-25T22:15:08.023Z,99.90
2022-10-25T22:18:55.763Z,99.90
2022-10-25T22:22:37.559Z,99.90
2022-10-25T22:26:20.864Z,99.90
2022-10-25T22:30:02.731Z,99.90
2022-10-25T22:33:45.445Z,99.90
2022-10-25T22:37:27.234Z,99.90
2022-10-25T22:41:17.647Z,99.90
2022-10-25T22:44:59.480Z,99.90
2022-10-25T22:48:43.087Z,99.90
2022-10-25T22:52:24.944Z,99.90
2022-10-25T22:56:08.289Z,99.90
2022-10-25T22:59:50.079Z,99.90
2022-10-25T23:03:36.775Z,99.90
2022-10-25T23:07:18.635Z,99.90
2022-10-25T23:11:06.246Z,99.90
2022-10-25T23:14:48.050Z,99.90
2022-10-25T23:18:30.279Z,99.90
2022-10-25T23:22:12.111Z,99.90
2022-10-25T23:25:54.637Z,99.90
2022-10-25T23:29:36.577Z,99.90
2022-10-25T23:33:18.359Z,99.90
2022-10-25T23:37:00.179Z,99.90
2022-10-25T23:40:45.873Z,99.90
2022-10-25T23:44:28.211Z,99.90
2022-10-25T23:48:10.108Z,99.90
2022-10-25T23:51:51.907Z,99.90
2022-10-25T23:55:33.775Z,99.90
2022-10-25T23:59:15.666Z,99.90
